Time;durP1;ratioP1;P1;durP2;ratioP2;P2;SDS_P1;SDS_P2;PMS_P1;PMS_P2;Temp;Humidity;BMP_temperature;BMP_pressure;BME280_temperature;BME280_humidity;BME280_pressure;Samples;Min_cycle;Max_cycle;Signal;HPM_P1;HPM_P2
2022/11/17 00:01:59;;;;;;;32.38;24.40;;;9.00;99.90;;;;;;5083101;28;20131;-74
2022/11/17 00:04:27;;;;;;;30.75;23.23;;;9.00;99.90;;;;;;5087565;28;20115;-74
2022/11/17 00:06:53;;;;;;;30.73;23.13;;;9.00;99.90;;;;;;5119613;27;20048;-74
2022/11/17 00:09:19;;;;;;;30.27;22.88;;;9.00;99.90;;;;;;5088521;28;20118;-74
2022/11/17 00:14:31;;;;;;;30.92;23.20;;;8.90;99.90;;;;;;5070117;28;20500;-74
2022/11/17 00:17:08;;;;;;;30.92;23.60;;;9.00;99.90;;;;;;5080964;28;20044;-74
2022/11/17 00:22:19;;;;;;;29.52;23.27;;;9.00;99.90;;;;;;5087724;28;20090;-74
2022/11/17 00:24:44;;;;;;;28.63;23.45;;;9.00;99.90;;;;;;5118125;27;20059;-74
2022/11/17 00:27:11;;;;;;;26.33;21.02;;;9.00;99.90;;;;;;5086951;28;20047;-73
2022/11/17 00:29:36;;;;;;;26.65;23.13;;;9.00;99.90;;;;;;5086316;28;20079;-74
2022/11/17 00:34:47;;;;;;;26.33;21.08;;;9.00;99.90;;;;;;5087612;28;20501;-74
2022/11/17 00:37:14;;;;;;;28.20;21.13;;;8.90;99.90;;;;;;5086941;28;20047;-74
2022/11/17 00:39:40;;;;;;;27.73;21.13;;;9.00;99.90;;;;;;5119536;27;20040;-74
2022/11/17 00:42:06;;;;;;;24.27;20.30;;;9.00;99.90;;;;;;5082715;28;20044;-74
2022/11/17 00:44:31;;;;;;;25.25;21.13;;;9.00;99.90;;;;;;5082788;28;20099;-74
2022/11/17 00:46:57;;;;;;;24.52;19.92;;;9.00;99.90;;;;;;5084648;28;20044;-74
2022/11/17 00:49:25;;;;;;;23.13;20.75;;;9.00;99.90;;;;;;5086328;28;20092;-74
2022/11/17 00:51:52;;;;;;;24.02;20.23;;;9.00;99.90;;;;;;5077355;28;20117;-74
2022/11/17 00:54:18;;;;;;;24.38;20.02;;;9.00;99.90;;;;;;5076438;28;20442;-74
2022/11/17 00:56:44;;;;;;;25.17;19.33;;;9.00;99.90;;;;;;5081623;28;20063;-74
2022/11/17 00:59:09;;;;;;;22.20;19.27;;;8.90;99.90;;;;;;5114303;27;20044;-74
2022/11/17 01:01:36;;;;;;;25.48;20.55;;;8.90;99.90;;;;;;5084994;28;20093;-74
2022/11/17 01:04:03;;;;;;;21.38;18.90;;;8.90;99.90;;;;;;5084538;28;20033;-73
2022/11/17 01:06:31;;;;;;;22.95;19.20;;;8.90;99.90;;;;;;5075465;28;20082;-74
2022/11/17 01:09:02;;;;;;;25.23;19.58;;;8.90;99.90;;;;;;5118605;27;20044;-74
2022/11/17 01:11:28;;;;;;;22.95;18.15;;;8.90;99.90;;;;;;5120506;27;20043;-74
2022/11/17 01:13:56;;;;;;;23.33;19.05;;;8.90;99.90;;;;;;5082868;28;20040;-74
2022/11/17 01:16:22;;;;;;;22.92;18.52;;;8.90;99.90;;;;;;5080944;28;20056;-74
2022/11/17 01:18:48;;;;;;;21.88;18.95;;;8.90;99.90;;;;;;5119919;27;20074;-74
2022/11/17 01:21:20;;;;;;;20.98;18.20;;;8.90;99.90;;;;;;5085711;28;20044;-74
2022/11/17 01:23:48;;;;;;;23.75;18.52;;;8.90;99.90;;;;;;5108988;27;20047;-74
2022/11/17 01:26:14;;;;;;;;;;;8.90;99.90;;;;;;5082497;28;20089;-74
2022/11/17 01:28:41;;;;;;;22.48;18.08;;;8.90;99.90;;;;;;5083866;28;19924;-73
2022/11/17 01:31:10;;;;;;;23.00;16.80;;;8.90;99.90;;;;;;5083943;28;20130;-74
2022/11/17 01:33:36;;;;;;;21.45;17.10;;;8.90;99.90;;;;;;5083290;28;20115;-74
2022/11/17 01:36:05;;;;;;;20.75;17.73;;;8.90;99.90;;;;;;5073747;28;21321;-73
2022/11/17 01:38:31;;;;;;;20.33;17.55;;;8.80;99.90;;;;;;5087242;28;20682;-74
2022/11/17 01:41:01;;;;;;;24.85;17.30;;;8.90;99.90;;;;;;5085643;28;20032;-74
2022/11/17 01:43:42;;;;;;;20.70;16.95;;;8.90;99.90;;;;;;5118430;27;20047;-74
2022/11/17 01:46:28;;;;;;;20.02;17.90;;;8.90;99.90;;;;;;5084689;28;20059;-75
2022/11/17 01:49:01;;;;;;;21.58;16.35;;;8.90;99.90;;;;;;5078294;28;20116;-74
2022/11/17 01:51:31;;;;;;;20.00;17.70;;;8.90;99.90;;;;;;5085308;28;20035;-74
2022/11/17 01:53:58;;;;;;;21.00;17.38;;;8.90;99.90;;;;;;5083548;28;20113;-74
2022/11/17 01:56:28;;;;;;;21.33;17.13;;;8.90;99.90;;;;;;5083101;28;20123;-74
2022/11/17 01:59:01;;;;;;;23.45;17.25;;;8.90;99.90;;;;;;5084615;28;20072;-74
2022/11/17 02:01:31;;;;;;;21.65;15.80;;;8.90;99.90;;;;;;5078624;28;20067;-74
2022/11/17 02:03:57;;;;;;;20.02;16.85;;;8.80;99.90;;;;;;5075984;28;20131;-74
2022/11/17 02:06:32;;;;;;;20.88;16.67;;;8.90;99.90;;;;;;5075310;28;20292;-74
2022/11/17 02:08:59;;;;;;;21.75;17.20;;;8.90;99.90;;;;;;5079342;28;20047;-74
2022/11/17 02:11:28;;;;;;;27.70;17.27;;;8.90;99.90;;;;;;5075872;28;20483;-73
2022/11/17 02:13:54;;;;;;;20.80;17.63;;;8.90;99.90;;;;;;5076638;28;20043;-74
2022/11/17 02:16:20;;;;;;;19.13;15.90;;;8.90;99.90;;;;;;5083266;28;20594;-74
2022/11/17 02:18:47;;;;;;;20.67;16.40;;;8.90;99.90;;;;;;5085220;28;20028;-74
2022/11/17 02:21:39;;;;;;;20.45;17.38;;;8.90;99.90;;;;;;5079264;28;20044;-74
2022/11/17 02:24:41;;;;;;;24.38;17.08;;;8.90;99.90;;;;;;5080353;28;20147;-74
2022/11/17 02:27:31;;;;;;;21.90;17.15;;;8.90;99.90;;;;;;5079495;28;20051;-73
2022/11/17 02:30:02;;;;;;;22.35;17.52;;;8.80;99.90;;;;;;5076533;28;20076;-73
2022/11/17 02:33:06;;;;;;;22.60;17.42;;;8.90;99.90;;;;;;5082687;28;20061;-74
2022/11/17 02:35:54;;;;;;;22.30;17.67;;;8.80;99.90;;;;;;5079317;28;20387;-74
2022/11/17 02:38:20;;;;;;;23.85;18.50;;;8.80;99.90;;;;;;5111194;27;20862;-74
2022/11/17 02:41:10;;;;;;;23.30;18.52;;;8.80;99.90;;;;;;5079897;28;20056;-74
2022/11/17 02:46:45;;;;;;;24.05;18.15;;;8.80;99.90;;;;;;5080640;28;20044;-74
2022/11/17 02:49:30;;;;;;;22.45;17.65;;;8.80;99.90;;;;;;5082396;28;20075;-74
2022/11/17 02:51:57;;;;;;;21.27;18.83;;;8.70;99.90;;;;;;5079306;28;20043;-74
2022/11/17 02:54:26;;;;;;;24.45;19.02;;;8.70;99.90;;;;;;5082473;28;20093;-73
2022/11/17 02:56:52;;;;;;;21.23;18.15;;;8.70;99.90;;;;;;5081265;28;20036;-74
2022/11/17 02:59:24;;;;;;;24.55;18.10;;;8.70;99.90;;;;;;5077718;28;20093;-74
2022/11/17 03:02:09;;;;;;;23.45;18.00;;;8.60;99.90;;;;;;5084288;28;20487;-74
2022/11/17 03:05:00;;;;;;;23.52;18.30;;;8.60;99.90;;;;;;5083918;28;20059;-74
2022/11/17 03:08:00;;;;;;;25.17;18.95;;;8.60;99.90;;;;;;5105530;28;20059;-74
2022/11/17 03:10:39;;;;;;;22.67;18.13;;;8.60;99.90;;;;;;5119094;28;20029;-74
2022/11/17 03:13:17;;;;;;;22.95;18.63;;;8.60;99.90;;;;;;5077963;28;20048;-74
2022/11/17 03:15:43;;;;;;;22.27;18.17;;;8.60;99.90;;;;;;5086667;28;20531;-74
2022/11/17 03:18:09;;;;;;;21.08;17.80;;;8.60;99.90;;;;;;5088211;28;20103;-74
2022/11/17 03:20:59;;;;;;;22.63;18.88;;;8.60;99.90;;;;;;5081706;28;22133;-74
2022/11/17 03:23:39;;;;;;;24.33;18.92;;;8.60;99.90;;;;;;5087639;28;20040;-74
2022/11/17 03:26:08;;;;;;;21.08;18.15;;;8.50;99.90;;;;;;5085548;28;20047;-74
2022/11/17 03:28:35;;;;;;;24.45;19.20;;;8.50;99.90;;;;;;5087216;28;20085;-74
2022/11/17 03:31:05;;;;;;;21.75;18.13;;;8.50;99.90;;;;;;5079992;28;20475;-74
2022/11/17 03:33:32;;;;;;;23.13;18.30;;;8.50;99.90;;;;;;5084474;28;20040;-74
2022/11/17 03:36:18;;;;;;;21.90;18.17;;;8.50;99.90;;;;;;5119775;27;20036;-74
2022/11/17 03:38:52;;;;;;;20.83;16.30;;;8.50;99.90;;;;;;5089061;28;20040;-74
2022/11/17 03:41:20;;;;;;;18.67;16.67;;;8.50;99.90;;;;;;5086643;28;20387;-73
2022/11/17 03:43:50;;;;;;;21.60;16.30;;;8.50;99.90;;;;;;5090281;28;20050;-74
2022/11/17 03:46:20;;;;;;;19.42;16.90;;;8.50;99.90;;;;;;5086154;28;20235;-73
2022/11/17 03:48:57;;;;;;;22.30;16.23;;;8.50;99.90;;;;;;5084772;28;20052;-73
2022/11/17 03:51:25;;;;;;;;;;;8.50;99.90;;;;;;5119649;27;20040;-74
2022/11/17 03:53:53;;;;;;;18.73;14.85;;;8.50;99.90;;;;;;5083415;28;19926;-74
2022/11/17 03:56:52;;;;;;;18.70;15.07;;;8.40;99.90;;;;;;5075254;28;20047;-74
2022/11/17 03:59:25;;;;;;;18.20;16.13;;;8.40;99.90;;;;;;5080649;28;20036;-74
2022/11/17 04:01:51;;;;;;;20.15;15.05;;;8.40;99.90;;;;;;5113065;27;20041;-74
2022/11/17 04:04:19;;;;;;;19.75;16.10;;;8.30;99.90;;;;;;5078699;28;20429;-74
2022/11/17 04:06:45;;;;;;;18.48;16.42;;;8.40;99.90;;;;;;5084250;28;20044;-73
2022/11/17 04:09:11;;;;;;;19.55;15.07;;;8.40;99.90;;;;;;5085227;28;20085;-73
2022/11/17 04:17:05;;;;;;;17.80;15.45;;;8.30;99.90;;;;;;5113664;27;20044;-73
2022/11/17 04:19:31;;;;;;;18.42;15.30;;;8.30;99.90;;;;;;5087461;28;20408;-73
2022/11/17 04:21:57;;;;;;;18.85;15.52;;;8.30;99.90;;;;;;5084765;28;20147;-71
2022/11/17 04:24:22;;;;;;;17.92;16.02;;;8.30;99.90;;;;;;5079988;28;20463;-73
2022/11/17 04:29:35;;;;;;;16.15;14.15;;;8.20;99.90;;;;;;5099538;28;20492;-73
2022/11/17 04:32:01;;;;;;;16.65;14.70;;;8.30;99.90;;;;;;5074272;28;20044;-73
2022/11/17 04:34:26;;;;;;;17.10;13.02;;;8.30;99.90;;;;;;5077522;28;20494;-73
2022/11/17 04:36:52;;;;;;;14.75;13.25;;;8.20;99.90;;;;;;5085455;28;20706;-72
2022/11/17 04:39:18;;;;;;;15.85;14.15;;;8.20;99.90;;;;;;5081669;28;20086;-72
2022/11/17 04:41:52;;;;;;;16.33;14.63;;;8.20;99.90;;;;;;5087429;28;20054;-73
2022/11/17 04:44:19;;;;;;;14.00;12.60;;;8.20;99.90;;;;;;5084299;28;20068;-73
2022/11/17 04:46:45;;;;;;;14.35;12.85;;;8.20;99.90;;;;;;5067679;28;20139;-73
2022/11/17 04:49:12;;;;;;;14.55;12.85;;;8.20;99.90;;;;;;5085301;28;20123;-73
2022/11/17 04:51:38;;;;;;;14.30;12.80;;;8.20;99.90;;;;;;5081036;28;20048;-73
2022/11/17 04:54:06;;;;;;;14.23;11.90;;;8.10;99.90;;;;;;5087770;28;20669;-73
2022/11/17 04:56:32;;;;;;;15.48;12.48;;;8.10;99.90;;;;;;5086579;28;20153;-73
2022/11/17 04:58:58;;;;;;;13.85;12.43;;;8.10;99.90;;;;;;5084746;28;20036;-73
2022/11/17 05:01:25;;;;;;;12.40;11.10;;;8.10;99.90;;;;;;5087057;28;20101;-73
2022/11/17 05:03:53;;;;;;;14.00;11.35;;;8.10;99.90;;;;;;5076192;28;20613;-72
2022/11/17 05:06:22;;;;;;;13.60;11.57;;;8.10;99.90;;;;;;5082869;28;20035;-72
2022/11/17 05:08:48;;;;;;;12.65;11.35;;;8.00;99.90;;;;;;5087415;28;20071;-73
2022/11/17 05:14:00;;;;;;;12.48;11.27;;;8.00;99.90;;;;;;5085357;28;20431;-73
2022/11/17 05:19:14;;;;;;;12.85;11.50;;;8.00;99.90;;;;;;5084737;28;20051;-73
2022/11/17 05:21:40;;;;;;;13.63;11.55;;;8.00;99.90;;;;;;5087266;28;20051;-73
2022/11/17 05:24:07;;;;;;;13.30;11.90;;;7.90;99.90;;;;;;5086511;28;20447;-73
2022/11/17 05:26:35;;;;;;;14.48;12.20;;;7.90;99.90;;;;;;5082931;28;20040;-73
2022/11/17 05:29:02;;;;;;;14.88;11.35;;;7.90;99.90;;;;;;5087004;28;20110;-73
2022/11/17 05:31:28;;;;;;;13.75;11.75;;;7.90;99.90;;;;;;5085849;28;20043;-73
2022/11/17 05:33:55;;;;;;;12.32;11.13;;;7.90;99.90;;;;;;5085205;28;20036;-73
2022/11/17 05:36:22;;;;;;;14.10;11.07;;;7.90;99.90;;;;;;5079501;28;21567;-73
2022/11/17 05:38:48;;;;;;;13.05;11.75;;;7.90;99.90;;;;;;5080654;28;20040;-73
2022/11/17 05:41:15;;;;;;;12.45;10.98;;;7.80;99.90;;;;;;5077860;28;20131;-73
2022/11/17 05:43:41;;;;;;;13.38;11.27;;;7.80;99.90;;;;;;5080641;28;20040;-73
2022/11/17 05:46:07;;;;;;;15.43;11.90;;;7.80;99.90;;;;;;5114803;27;20048;-73
2022/11/17 05:48:33;;;;;;;13.40;11.50;;;7.80;99.90;;;;;;5084278;28;20054;-73
2022/11/17 05:50:59;;;;;;;14.32;11.15;;;7.80;99.90;;;;;;5081223;28;20071;-73
2022/11/17 05:53:25;;;;;;;13.38;10.80;;;7.80;99.90;;;;;;5099166;28;20052;-73
2022/11/17 05:56:03;;;;;;;13.50;11.00;;;7.80;99.90;;;;;;5075818;28;20149;-73
2022/11/17 05:58:32;;;;;;;12.25;10.57;;;7.80;99.90;;;;;;5082666;28;20108;-73
2022/11/17 06:00:58;;;;;;;14.00;11.65;;;7.70;99.90;;;;;;5082374;28;20048;-72
2022/11/17 06:03:29;;;;;;;11.25;9.95;;;7.80;99.90;;;;;;5086348;28;20090;-73
2022/11/17 06:05:56;;;;;;;11.88;10.57;;;7.80;99.90;;;;;;5072887;28;20044;-73
2022/11/17 06:08:21;;;;;;;12.02;10.43;;;7.80;99.90;;;;;;5084690;28;20044;-73
2022/11/17 06:10:47;;;;;;;11.70;10.50;;;7.80;99.90;;;;;;5084945;28;20048;-72
2022/11/17 06:13:12;;;;;;;11.77;10.57;;;7.70;99.90;;;;;;5079232;28;20040;-73
2022/11/17 06:15:38;;;;;;;11.60;10.40;;;7.70;99.90;;;;;;5083526;28;20446;-73
2022/11/17 06:18:15;;;;;;;10.65;9.60;;;7.70;99.90;;;;;;5085412;28;20119;-72
2022/11/17 06:20:45;;;;;;;11.85;10.63;;;7.70;99.90;;;;;;5119419;27;20056;-72
2022/11/17 06:23:11;;;;;;;10.77;9.63;;;7.70;99.90;;;;;;5085064;28;20122;-73
2022/11/17 06:25:38;;;;;;;11.02;9.90;;;7.70;99.90;;;;;;5081276;28;20119;-73
2022/11/17 06:28:07;;;;;;;11.93;9.77;;;7.60;99.90;;;;;;5084362;28;20036;-72
2022/11/17 06:30:35;;;;;;;11.32;9.55;;;7.60;99.90;;;;;;5084316;28;20052;-73
2022/11/17 06:33:02;;;;;;;10.85;9.25;;;7.60;99.90;;;;;;5110481;27;20123;-73
2022/11/17 06:35:33;;;;;;;10.55;9.45;;;7.60;99.90;;;;;;5109208;27;20078;-73
2022/11/17 06:38:00;;;;;;;10.65;9.55;;;7.60;99.90;;;;;;5113630;27;20040;-73
2022/11/17 06:40:26;;;;;;;10.23;9.05;;;7.60;99.90;;;;;;5081824;28;20033;-72
2022/11/17 06:43:08;;;;;;;10.45;9.30;;;7.50;99.90;;;;;;5081959;28;20036;-73
2022/11/17 06:45:41;;;;;;;9.95;8.95;;;7.60;99.90;;;;;;5083152;28;20104;-73
2022/11/17 06:48:09;;;;;;;10.40;9.30;;;7.50;99.90;;;;;;5076305;28;20123;-73
2022/11/17 06:50:35;;;;;;;10.13;8.95;;;7.50;99.90;;;;;;5090135;28;20039;-73
2022/11/17 06:53:03;;;;;;;11.10;9.07;;;7.50;99.90;;;;;;5114869;27;20568;-73
2022/11/17 06:55:30;;;;;;;9.80;8.80;;;7.50;99.90;;;;;;5117807;27;20552;-72
2022/11/17 06:58:02;;;;;;;10.75;9.25;;;7.50;99.90;;;;;;5091581;28;20048;-73
2022/11/17 07:00:29;;;;;;;10.02;8.88;;;7.50;99.90;;;;;;5087783;28;20036;-72
2022/11/17 07:02:59;;;;;;;9.65;8.32;;;7.50;99.90;;;;;;5115512;27;20043;-73
2022/11/17 07:05:25;;;;;;;10.52;8.63;;;7.50;99.90;;;;;;5075699;28;20036;-73
2022/11/17 07:07:51;;;;;;;9.80;8.80;;;7.50;99.90;;;;;;5111097;27;20109;-73
2022/11/17 07:10:16;;;;;;;11.10;8.43;;;7.50;99.90;;;;;;5078542;28;20402;-73
2022/11/17 07:12:44;;;;;;;9.27;8.32;;;7.50;99.90;;;;;;5076734;28;20064;-75
2022/11/17 07:15:10;;;;;;;10.32;9.23;;;7.50;99.90;;;;;;5088709;28;20126;-74
2022/11/17 07:17:36;;;;;;;9.95;8.70;;;7.50;99.90;;;;;;5086795;28;20134;-74
2022/11/17 07:20:02;;;;;;;10.32;8.95;;;7.50;99.90;;;;;;5077681;28;20071;-74
2022/11/17 07:22:28;;;;;;;10.48;9.38;;;7.60;99.90;;;;;;5082807;28;20390;-74
2022/11/17 07:24:54;;;;;;;10.75;8.98;;;7.50;99.90;;;;;;5087237;28;20489;-74
2022/11/17 07:27:20;;;;;;;9.70;8.70;;;7.50;99.90;;;;;;5087798;28;20682;-74
2022/11/17 07:29:46;;;;;;;11.02;8.73;;;7.50;99.90;;;;;;5088709;28;20044;-73
2022/11/17 07:32:12;;;;;;;9.82;8.82;;;7.50;99.90;;;;;;5084707;28;20527;-74
2022/11/17 07:34:39;;;;;;;9.63;8.63;;;7.50;99.90;;;;;;5084468;28;20063;-74
2022/11/17 07:37:06;;;;;;;10.15;9.15;;;7.50;99.90;;;;;;5091066;28;20286;-74
2022/11/17 07:39:32;;;;;;;9.88;8.88;;;7.50;99.90;;;;;;5089521;28;20067;-74
2022/11/17 07:41:58;;;;;;;10.82;9.18;;;7.50;99.90;;;;;;5072910;28;20036;-74
2022/11/17 07:44:23;;;;;;;10.77;9.73;;;7.50;99.90;;;;;;5085123;28;20093;-74
2022/11/17 07:46:49;;;;;;;10.93;9.82;;;7.50;99.90;;;;;;5087563;28;20611;-74
2022/11/17 07:49:15;;;;;;;11.23;10.13;;;7.50;99.90;;;;;;5076032;28;20649;-74
2022/11/17 07:51:41;;;;;;;11.25;10.15;;;7.50;99.90;;;;;;5117715;27;20048;-74
2022/11/17 07:54:07;;;;;;;10.82;9.73;;;7.50;99.90;;;;;;5087525;28;20040;-74
2022/11/17 07:56:33;;;;;;;12.40;11.13;;;7.50;99.90;;;;;;5077126;28;20506;-74
2022/11/17 07:58:59;;;;;;;11.13;10.02;;;7.50;99.90;;;;;;5086792;28;20043;-74
2022/11/17 08:01:26;;;;;;;11.55;10.35;;;7.50;99.90;;;;;;5088656;28;20036;-74
2022/11/17 08:03:52;;;;;;;12.57;10.60;;;7.60;99.90;;;;;;5076871;28;20036;-74
2022/11/17 08:06:18;;;;;;;13.27;10.80;;;7.50;99.90;;;;;;5079210;28;20554;-74
2022/11/17 08:08:44;;;;;;;13.02;11.57;;;7.50;99.90;;;;;;5083527;28;20036;-74
2022/11/17 08:11:11;;;;;;;12.40;11.18;;;7.50;99.90;;;;;;5084985;28;20463;-74
2022/11/17 08:13:38;;;;;;;13.30;12.00;;;7.50;99.90;;;;;;5088479;28;20213;-73
2022/11/17 08:16:05;;;;;;;13.10;11.80;;;7.50;99.90;;;;;;5086425;28;20057;-74
2022/11/17 08:18:32;;;;;;;12.55;11.35;;;7.50;99.90;;;;;;5088797;28;20074;-76
2022/11/17 08:21:02;;;;;;;15.05;11.63;;;7.50;99.90;;;;;;5086049;28;20072;-72
2022/11/17 08:23:28;;;;;;;12.50;11.20;;;7.50;99.90;;;;;;5088098;28;20044;-71
2022/11/17 08:25:54;;;;;;;12.52;11.23;;;7.40;99.90;;;;;;5082949;28;20917;-84
2022/11/17 08:28:20;;;;;;;13.48;11.82;;;7.50;99.90;;;;;;5083781;28;20041;-82
2022/11/17 08:30:46;;;;;;;13.82;10.90;;;7.50;99.90;;;;;;5079849;28;20043;-86
2022/11/17 08:33:11;;;;;;;12.43;10.80;;;7.50;99.90;;;;;;5087160;28;20044;-88
2022/11/17 08:35:37;;;;;;;12.20;10.80;;;7.50;99.90;;;;;;5085263;28;20071;-82
2022/11/17 08:38:03;;;;;;;12.52;11.23;;;7.50;99.90;;;;;;5085254;28;20040;-79
2022/11/17 08:40:29;;;;;;;12.50;11.20;;;7.50;99.90;;;;;;5082976;28;20040;-82
2022/11/17 08:42:54;;;;;;;12.80;11.40;;;7.50;99.90;;;;;;5081995;28;20116;-80
2022/11/17 08:45:20;;;;;;;12.13;10.82;;;7.50;99.90;;;;;;5079269;28;20628;-82
2022/11/17 08:47:46;;;;;;;12.20;10.90;;;7.50;99.90;;;;;;5087867;28;20033;-80
2022/11/17 08:50:11;;;;;;;12.30;11.00;;;7.40;99.90;;;;;;5088602;28;20054;-83
2022/11/17 08:52:37;;;;;;;12.57;10.77;;;7.50;99.90;;;;;;5089737;28;20130;-82
2022/11/17 08:55:04;;;;;;;11.60;10.32;;;7.50;99.90;;;;;;5081379;28;20052;-79
2022/11/17 08:57:31;;;;;;;10.85;9.75;;;7.50;99.90;;;;;;5081653;28;20044;-82
2022/11/17 08:59:57;;;;;;;10.73;9.63;;;7.50;99.90;;;;;;5084578;28;20082;-84
2022/11/17 09:02:23;;;;;;;10.85;9.75;;;7.50;99.90;;;;;;5084790;28;20391;-86
2022/11/17 09:04:49;;;;;;;10.18;9.18;;;7.50;99.90;;;;;;5076240;28;20043;-80
2022/11/17 09:07:15;;;;;;;10.63;9.52;;;7.60;99.90;;;;;;5078895;28;20063;-75
2022/11/17 09:09:40;;;;;;;11.13;9.13;;;7.50;99.90;;;;;;5078676;28;20036;-75
2022/11/17 09:12:06;;;;;;;10.20;9.18;;;7.50;99.90;;;;;;5083242;28;20529;-75
2022/11/17 09:14:32;;;;;;;9.90;8.90;;;7.50;99.90;;;;;;5085058;28;20483;-82
2022/11/17 09:16:58;;;;;;;10.43;9.32;;;7.50;99.90;;;;;;5085172;28;20050;-79
2022/11/17 09:19:23;;;;;;;10.18;9.18;;;7.50;99.90;;;;;;5084261;28;20121;-89
2022/11/17 09:21:49;;;;;;;10.27;9.15;;;7.50;99.90;;;;;;5083186;28;20032;-90
2022/11/17 09:24:15;;;;;;;9.75;8.75;;;7.60;99.90;;;;;;5081201;28;20050;-89
2022/11/17 09:26:40;;;;;;;11.43;9.15;;;7.60;99.90;;;;;;5079992;28;20139;-83
2022/11/17 09:29:07;;;;;;;10.35;9.18;;;7.60;99.90;;;;;;5077355;28;20080;-77
2022/11/17 09:31:34;;;;;;;11.48;9.52;;;7.60;99.90;;;;;;5073034;28;20054;-75
2022/11/17 09:34:00;;;;;;;10.03;9.03;;;7.60;99.90;;;;;;5078643;28;20105;-77
2022/11/17 09:36:26;;;;;;;10.18;9.10;;;7.60;99.90;;;;;;5082240;28;20032;-79
2022/11/17 09:38:51;;;;;;;10.23;9.23;;;7.60;99.90;;;;;;5086604;28;20116;-79
2022/11/17 09:41:30;;;;;;;9.27;7.47;;;7.60;99.90;;;;;;5082798;28;20124;-79
2022/11/17 09:44:00;;;;;;;10.02;9.02;;;7.60;99.90;;;;;;5087638;28;20483;-78
2022/11/17 09:46:52;;;;;;;60.55;11.38;;;7.60;99.90;;;;;;5087799;28;20052;-79
2022/11/17 09:49:33;;;;;;;8.60;7.70;;;7.70;99.90;;;;;;5087357;28;20044;-78
2022/11/17 09:52:13;;;;;;;8.80;7.90;;;7.70;99.90;;;;;;5087066;28;20422;-78
2022/11/17 09:54:48;;;;;;;8.43;7.55;;;7.80;99.90;;;;;;5085108;28;20054;-78
2022/11/17 09:57:24;;;;;;;8.85;7.72;;;7.70;99.90;;;;;;5085975;28;20047;-77
2022/11/17 10:00:13;;;;;;;8.70;7.68;;;7.80;99.90;;;;;;5086654;28;20131;-77
2022/11/17 10:02:40;;;;;;;7.70;6.95;;;7.70;99.90;;;;;;5087720;28;20085;-76
2022/11/17 10:05:13;;;;;;;7.63;6.93;;;7.70;99.90;;;;;;5085582;28;20075;-77
2022/11/17 10:07:50;;;;;;;8.38;7.47;;;7.70;99.90;;;;;;5083655;28;20097;-84
2022/11/17 10:10:39;;;;;;;8.20;7.38;;;7.70;99.90;;;;;;5078913;28;20039;-83
2022/11/17 10:13:11;;;;;;;8.57;7.68;;;7.70;99.90;;;;;;5088187;28;20048;-83
2022/11/17 10:15:45;;;;;;;8.02;7.22;;;7.70;99.90;;;;;;5086066;28;20149;-81
2022/11/17 10:18:13;;;;;;;8.30;7.50;;;7.70;99.90;;;;;;5079742;28;20048;-76
2022/11/17 10:20:41;;;;;;;8.32;7.20;;;7.70;99.90;;;;;;5080894;28;20040;-87
2022/11/17 10:23:14;;;;;;;7.40;6.70;;;7.80;99.90;;;;;;5086725;28;20040;-85
2022/11/17 10:25:46;;;;;;;7.45;6.65;;;7.80;99.90;;;;;;5081906;28;20547;-86
2022/11/17 10:28:29;;;;;;;9.60;7.80;;;7.80;99.90;;;;;;5080853;28;20067;-85
2022/11/17 10:30:59;;;;;;;9.38;8.00;;;7.90;99.90;;;;;;5080489;28;20077;-74
2022/11/17 10:33:54;;;;;;;7.40;6.53;;;7.80;99.90;;;;;;5078499;28;20043;-72
2022/11/17 10:36:21;;;;;;;7.97;7.18;;;7.90;99.90;;;;;;5060557;28;20067;-78
2022/11/17 10:38:50;;;;;;;7.97;7.18;;;7.90;99.90;;;;;;5081382;28;20077;-78
2022/11/17 10:41:23;;;;;;;7.03;6.32;;;7.90;99.90;;;;;;5086109;28;20044;-79
2022/11/17 10:44:13;;;;;;;8.02;6.75;;;7.90;99.90;;;;;;5087149;28;20066;-79
2022/11/17 10:46:54;;;;;;;7.60;6.80;;;7.90;99.90;;;;;;5073505;28;20046;-74
2022/11/17 10:49:32;;;;;;;7.35;6.60;;;7.90;99.90;;;;;;5086800;28;20092;-74
2022/11/17 10:52:10;;;;;;;7.78;6.68;;;7.90;99.90;;;;;;5065959;28;20055;-74
2022/11/17 10:54:36;;;;;;;7.07;6.32;;;7.90;99.90;;;;;;5067524;28;20415;-74
2022/11/17 10:57:07;;;;;;;7.30;6.60;;;8.00;99.90;;;;;;5067409;28;20484;-74
2022/11/17 10:59:52;;;;;;;7.50;6.70;;;8.00;99.90;;;;;;5066448;28;20047;-74
2022/11/17 11:02:29;;;;;;;7.00;6.30;;;8.00;99.90;;;;;;5079053;28;20044;-74
2022/11/17 11:05:07;;;;;;;8.20;7.38;;;8.00;99.90;;;;;;5067972;28;20048;-74
2022/11/17 11:07:33;;;;;;;9.45;7.20;;;8.00;99.90;;;;;;5067455;28;20090;-73
2022/11/17 11:10:17;;;;;;;8.18;7.20;;;8.00;99.90;;;;;;5071196;28;20144;-78
2022/11/17 11:13:07;;;;;;;7.63;6.82;;;8.00;99.90;;;;;;5074464;28;20044;-89
2022/11/17 11:15:35;;;;;;;7.20;6.50;;;8.00;99.90;;;;;;5115448;28;20547;-91
2022/11/17 11:18:04;;;;;;;8.15;6.45;;;8.00;99.90;;;;;;5073768;28;20048;-84
2022/11/17 11:21:01;;;;;;;9.05;7.28;;;8.00;99.90;;;;;;5077663;28;20051;-81
2022/11/17 11:23:30;;;;;;;8.18;7.38;;;8.00;99.90;;;;;;5067910;28;20043;-83
2022/11/17 11:26:11;;;;;;;9.15;7.30;;;8.00;99.90;;;;;;5082774;28;20048;-85
2022/11/17 11:29:09;;;;;;;8.00;7.20;;;8.10;99.90;;;;;;5083578;28;20654;-86
2022/11/17 11:31:56;;;;;;;10.07;7.15;;;8.10;99.90;;;;;;5083697;28;20500;-79
2022/11/17 11:34:31;;;;;;;;;;;8.00;99.90;;;;;;5084469;28;20048;-84
2022/11/17 11:37:12;;;;;;;8.38;7.47;;;8.10;99.90;;;;;;5083804;28;19979;-87
2022/11/17 11:39:55;;;;;;;9.60;8.60;;;8.10;99.90;;;;;;5086731;28;20083;-86
2022/11/17 11:42:48;;;;;;;9.27;8.00;;;8.20;99.90;;;;;;5082460;28;21399;-84
2022/11/17 11:45:43;;;;;;;9.30;8.40;;;8.30;99.90;;;;;;5086767;28;20677;-77
2022/11/17 11:48:16;;;;;;;9.93;8.80;;;8.30;99.90;;;;;;5080506;28;20044;-78
2022/11/17 11:51:00;;;;;;;10.88;8.68;;;8.40;99.90;;;;;;5084059;28;20036;-76
2022/11/17 11:53:44;;;;;;;10.00;8.98;;;8.50;99.90;;;;;;5080680;28;20138;-77
2022/11/17 11:56:17;;;;;;;9.50;8.50;;;8.50;99.90;;;;;;5082462;28;20063;-78
2022/11/17 11:58:48;;;;;;;10.00;8.93;;;8.50;99.90;;;;;;5089758;28;20048;-79
2022/11/17 12:01:17;;;;;;;12.07;10.77;;;8.50;99.90;;;;;;5079722;28;20279;-76
2022/11/17 12:03:51;;;;;;;11.77;10.57;;;8.60;99.90;;;;;;5088863;28;20123;-78
2022/11/17 12:09:37;;;;;;;14.23;12.77;;;8.70;99.90;;;;;;5081281;28;20048;-77
2022/11/17 12:12:12;;;;;;;14.73;13.23;;;8.80;99.90;;;;;;5085614;28;20481;-79
2022/11/17 12:14:38;;;;;;;13.93;12.63;;;8.80;99.90;;;;;;5087256;28;20044;-79
2022/11/17 12:17:12;;;;;;;12.95;11.07;;;8.90;99.90;;;;;;5084693;28;20694;-79
2022/11/17 12:19:48;;;;;;;13.27;11.88;;;8.90;99.90;;;;;;5085849;28;20076;-79
2022/11/17 12:22:31;;;;;;;13.43;12.13;;;8.90;99.90;;;;;;5077487;28;20584;-78
2022/11/17 12:25:28;;;;;;;12.45;11.15;;;9.00;99.90;;;;;;5084730;28;20395;-79
2022/11/17 12:27:54;;;;;;;12.10;10.90;;;9.00;99.90;;;;;;5073508;28;20131;-79
2022/11/17 12:30:32;;;;;;;12.98;11.60;;;9.00;99.90;;;;;;5075008;28;20490;-79
2022/11/17 12:32:59;;;;;;;13.35;11.27;;;9.00;99.90;;;;;;5087308;28;20548;-78
2022/11/17 12:35:26;;;;;;;;;;;9.10;99.90;;;;;;5073127;28;20089;-79
2022/11/17 12:38:14;;;;;;;13.18;11.45;;;9.10;99.90;;;;;;5076561;28;19928;-79
2022/11/17 12:40:50;;;;;;;14.15;12.73;;;9.10;99.90;;;;;;5074988;28;20143;-78
2022/11/17 12:43:20;;;;;;;14.48;12.98;;;9.10;99.90;;;;;;5076530;28;20040;-82
2022/11/17 12:45:58;;;;;;;13.75;12.35;;;9.10;99.90;;;;;;5086178;28;20046;-82
2022/11/17 12:48:25;;;;;;;13.95;12.55;;;9.10;99.90;;;;;;5083021;28;20542;-79
2022/11/17 12:51:09;;;;;;;16.13;12.75;;;9.20;99.90;;;;;;5070802;28;20503;-82
2022/11/17 12:53:59;;;;;;;13.82;12.43;;;9.20;99.90;;;;;;5080352;28;20060;-88
2022/11/17 12:56:49;;;;;;;13.85;12.55;;;9.20;99.90;;;;;;5088410;28;20101;-85
2022/11/17 12:59:43;;;;;;;13.90;12.45;;;9.20;99.90;;;;;;5081317;28;20403;-89
2022/11/17 13:02:39;;;;;;;14.43;13.13;;;9.20;99.90;;;;;;5132448;27;20051;-85
2022/11/17 13:05:20;;;;;;;12.98;11.52;;;9.20;99.90;;;;;;5081418;28;20092;-85
2022/11/17 13:07:45;;;;;;;13.13;11.82;;;9.30;99.90;;;;;;5085233;28;20040;-84
2022/11/17 13:10:26;;;;;;;12.05;10.85;;;9.20;99.90;;;;;;5074259;28;20123;-75
2022/11/17 13:13:09;;;;;;;12.38;10.88;;;9.10;99.90;;;;;;5077169;28;20126;-76
2022/11/17 13:15:35;;;;;;;12.07;10.80;;;9.20;99.90;;;;;;5072936;28;20097;-77
2022/11/17 13:18:06;;;;;;;12.00;10.55;;;9.20;99.90;;;;;;5077972;28;20135;-77
2022/11/17 13:20:32;;;;;;;12.07;10.48;;;9.20;99.90;;;;;;5083750;28;20514;-77
2022/11/17 13:23:21;;;;;;;10.93;9.88;;;9.20;99.90;;;;;;5110567;27;20079;-75
2022/11/17 13:25:47;;;;;;;11.38;10.05;;;9.20;99.90;;;;;;5087129;28;20047;-76
2022/11/17 13:28:30;;;;;;;11.63;10.52;;;9.20;99.90;;;;;;5084887;28;20433;-76
2022/11/17 13:30:57;;;;;;;12.35;11.15;;;9.20;99.90;;;;;;5085428;28;20043;-76
2022/11/17 13:33:24;;;;;;;14.38;13.00;;;9.10;99.90;;;;;;5079991;28;20479;-77